Terminal Aerodrome Forecast
Issued by NWS Spokane, WA

Home | Current Version | Previous Version | Text Only | Print | Product List | Glossary On
Versions: 1 2 3 4 5 6 7 8 9 10 11 12 13 14 15 16 17 18 19 20 21 22 23 24 25 26 27 28 29 30 31 32 33 34
221
FTUS46 KOTX 111136
TAFGEG
TAF
KGEG 111136Z 1112/1212 01006KT 1SM BR SCT001
      TEMPO 1112/1114 1/4SM FG VV001
     FM111400 VRB04KT 1/4SM FG VV002
     FM111730 07005KT 4SM BR SCT002 BKN006
     FM111830 07006KT P6SM SCT015 OVC040
     FM120100 06005KT P6SM -RA BKN020 OVC040=

USA.gov is the U.S. government's official web portal to all federal, state and local government web resources and services.